createdAt,value
2022-10-01T00:00:08.994Z,11.03
2022-10-01T00:02:40.250Z,8.50
2022-10-01T00:05:11.429Z,8.23
2022-10-01T00:07:45.191Z,7.63
2022-10-01T00:10:16.704Z,8.83
2022-10-01T00:12:49.007Z,7.27
2022-10-01T00:15:21.940Z,11.70
2022-10-01T00:17:53.528Z,8.43
2022-10-01T00:20:24.393Z,7.00
2022-10-01T00:22:55.251Z,7.40
2022-10-01T00:25:26.184Z,7.50
2022-10-01T00:27:57.103Z,9.80
2022-10-01T00:30:28.077Z,6.93
2022-10-01T00:32:58.998Z,7.20
2022-10-01T00:35:30.996Z,7.37
2022-10-01T00:38:01.926Z,6.73
2022-10-01T00:40:32.808Z,8.30
2022-10-01T00:43:25.334Z,7.20
2022-10-01T00:46:03.645Z,8.00
2022-10-01T00:48:46.501Z,6.60
2022-10-01T00:51:17.747Z,7.47
2022-10-01T00:53:48.968Z,7.13
2022-10-01T00:56:19.906Z,7.27
2022-10-01T00:58:54.233Z,9.20
2022-10-01T01:01:25.397Z,7.40
2022-10-01T01:03:57.115Z,7.80
2022-10-01T01:06:28.073Z,7.10
2022-10-01T01:08:59.454Z,9.00
2022-10-01T01:11:51.458Z,6.73
2022-10-01T01:15:07.661Z,8.10
2022-10-01T01:18:03.922Z,11.10
2022-10-01T01:21:00.593Z,9.77
2022-10-01T01:24:09.918Z,7.40
2022-10-01T01:26:58.426Z,7.33
2022-10-01T01:30:04.408Z,11.50
2022-10-01T01:32:46.405Z,7.23
2022-10-01T01:35:33.535Z,6.97
2022-10-01T01:38:16.412Z,7.83
2022-10-01T01:40:51.773Z,8.37
2022-10-01T01:43:31.421Z,7.80
2022-10-01T01:46:06.565Z,9.87
2022-10-01T01:48:41.808Z,9.53
2022-10-01T01:51:20.537Z,7.07
2022-10-01T01:53:51.872Z,8.67
2022-10-01T01:56:22.912Z,7.73
2022-10-01T01:58:57.431Z,7.80
2022-10-01T02:01:41.278Z,7.67
2022-10-01T02:04:17.635Z,7.33
2022-10-01T02:07:16.170Z,7.10
2022-10-01T02:10:29.546Z,9.63
2022-10-01T02:13:30.088Z,9.90
2022-10-01T02:16:22.574Z,7.63
2022-10-01T02:19:24.541Z,11.80
2022-10-01T02:22:17.337Z,7.00
2022-10-01T02:24:57.175Z,12.87
2022-10-01T02:27:33.595Z,8.13
2022-10-01T02:30:08.754Z,8.40
2022-10-01T02:32:43.027Z,6.87
2022-10-01T02:35:17.796Z,7.80
2022-10-01T02:37:51.875Z,7.80
2022-10-01T02:40:27.630Z,7.57
2022-10-01T02:43:11.438Z,8.03
2022-10-01T02:45:47.655Z,7.73
2022-10-01T02:48:19.737Z,6.67
2022-10-01T02:50:54.568Z,6.20
2022-10-01T02:53:48.857Z,7.43
2022-10-01T02:56:48.412Z,6.67
2022-10-01T02:59:22.536Z,8.47
2022-10-01T03:01:54.463Z,5.57
2022-10-01T03:04:25.431Z,9.10
2022-10-01T03:06:58.813Z,5.90
2022-10-01T03:09:37.333Z,5.43
2022-10-01T03:12:08.471Z,5.93
2022-10-01T03:14:39.410Z,7.30
2022-10-01T03:17:12.315Z,5.13
2022-10-01T03:19:43.649Z,7.20
2022-10-01T03:22:19.749Z,4.33
2022-10-01T03:24:52.123Z,4.33
2022-10-01T03:27:23.419Z,4.80
2022-10-01T03:29:54.405Z,4.80
2022-10-01T03:32:25.358Z,4.40
2022-10-01T03:34:56.249Z,4.80
2022-10-01T03:37:27.113Z,5.60
2022-10-01T03:39:58.036Z,4.70
2022-10-01T03:42:28.902Z,4.10
2022-10-01T03:44:59.760Z,6.37
2022-10-01T03:47:30.614Z,6.90
2022-10-01T03:50:01.650Z,6.83
2022-10-01T03:52:32.497Z,6.47
2022-10-01T03:55:03.485Z,6.87
2022-10-01T03:57:34.411Z,8.80
2022-10-01T04:00:06.067Z,6.57
2022-10-01T04:02:37.053Z,5.67
2022-10-01T04:05:08.937Z,13.33
2022-10-01T04:07:41.879Z,23.57
2022-10-01T04:10:12.838Z,28.00
2022-10-01T04:12:44.288Z,36.53
2022-10-01T04:15:16.903Z,37.87
2022-10-01T04:17:48.653Z,42.83
2022-10-01T04:20:19.666Z,40.73
2022-10-01T04:22:50.720Z,45.90
2022-10-01T04:25:21.693Z,45.93
2022-10-01T04:28:04.342Z,43.33
2022-10-01T04:30:40.909Z,45.70
2022-10-01T04:33:16.923Z,43.50
2022-10-01T04:35:47.821Z,36.57
2022-10-01T04:38:18.765Z,29.00
2022-10-01T04:40:49.590Z,30.40
2022-10-01T04:43:20.577Z,22.50
2022-10-01T04:45:51.458Z,18.97
2022-10-01T04:48:22.372Z,13.40
2022-10-01T04:50:53.470Z,12.03
2022-10-01T04:53:24.618Z,11.03
2022-10-01T04:55:55.645Z,9.57
2022-10-01T04:58:26.939Z,6.40
2022-10-01T05:01:01.835Z,9.60
2022-10-01T05:03:33.317Z,7.00
2022-10-01T05:06:04.271Z,5.00
2022-10-01T05:08:35.190Z,4.83
2022-10-01T05:11:06.322Z,6.77
2022-10-01T05:13:37.195Z,5.00
2022-10-01T05:16:08.570Z,7.00
2022-10-01T05:18:40.558Z,7.83
2022-10-01T05:21:11.800Z,5.50
2022-10-01T05:23:42.764Z,6.20
2022-10-01T05:26:13.766Z,11.37
2022-10-01T05:28:44.763Z,6.80
2022-10-01T05:31:16.008Z,8.83
2022-10-01T05:33:46.987Z,6.80
2022-10-01T05:36:18.166Z,7.47
2022-10-01T05:38:49.231Z,6.97
2022-10-01T05:41:20.288Z,3.70
2022-10-01T05:43:51.328Z,6.60
2022-10-01T05:46:22.193Z,4.40
2022-10-01T05:48:53.058Z,4.30
2022-10-01T05:51:24.228Z,3.70
2022-10-01T05:53:58.940Z,4.90
2022-10-01T05:56:30.714Z,3.90
2022-10-01T05:59:01.782Z,4.30
2022-10-01T06:01:32.804Z,4.00
2022-10-01T06:04:04.258Z,3.57
2022-10-01T06:06:35.111Z,4.73
2022-10-01T06:09:06.054Z,3.23
2022-10-01T06:11:37.524Z,6.20
2022-10-01T06:14:08.754Z,4.83
2022-10-01T06:16:39.695Z,7.80
2022-10-01T06:19:10.706Z,3.60
2022-10-01T06:21:41.579Z,3.03
2022-10-01T06:24:12.462Z,6.30
2022-10-01T06:26:43.741Z,3.23
2022-10-01T06:29:14.834Z,3.93
2022-10-01T06:31:45.737Z,3.03
2022-10-01T06:34:16.631Z,2.30
2022-10-01T06:36:47.470Z,3.13
2022-10-01T06:39:18.356Z,3.57
2022-10-01T06:41:49.186Z,5.43
2022-10-01T06:44:20.610Z,3.03
2022-10-01T06:46:51.453Z,2.83
2022-10-01T06:49:22.816Z,4.13
2022-10-01T06:52:12.155Z,4.23
2022-10-01T06:54:43.038Z,3.03
2022-10-01T06:57:14.070Z,4.77
2022-10-01T06:59:44.941Z,2.27
2022-10-01T07:02:32.331Z,3.03
2022-10-01T07:05:03.965Z,2.70
2022-10-01T07:07:37.859Z,2.07
2022-10-01T07:10:10.145Z,2.50
2022-10-01T07:12:41.184Z,3.03
2022-10-01T07:15:12.204Z,3.30
2022-10-01T07:17:46.036Z,3.20
2022-10-01T07:20:19.273Z,2.70
2022-10-01T07:22:59.607Z,2.80
2022-10-01T07:25:30.655Z,3.27
2022-10-01T07:28:04.933Z,2.87
2022-10-01T07:30:36.407Z,2.70
2022-10-01T07:33:07.282Z,2.77
2022-10-01T07:35:38.287Z,3.07
2022-10-01T07:38:09.211Z,8.13
2022-10-01T07:40:40.044Z,4.43
2022-10-01T07:43:11.008Z,2.77
2022-10-01T07:45:42.026Z,2.80
2022-10-01T07:48:15.127Z,3.83
2022-10-01T07:50:46.294Z,2.70
2022-10-01T07:53:17.333Z,2.60
2022-10-01T07:55:48.202Z,2.60
2022-10-01T07:58:21.926Z,2.87
2022-10-01T08:00:58.177Z,2.83
2022-10-01T08:03:29.093Z,2.83
2022-10-01T08:05:59.990Z,3.33
2022-10-01T08:08:31.756Z,2.83
2022-10-01T08:11:03.213Z,2.77
2022-10-01T08:13:35.052Z,3.37
2022-10-01T08:16:09.542Z,2.60
2022-10-01T08:18:40.813Z,3.00
2022-10-01T08:21:11.697Z,3.00
2022-10-01T08:23:42.609Z,3.53
2022-10-01T08:26:13.448Z,2.73
2022-10-01T08:28:44.341Z,3.90
2022-10-01T08:31:15.227Z,2.80
2022-10-01T08:33:46.281Z,5.07
2022-10-01T08:36:18.044Z,2.40
2022-10-01T08:38:49.374Z,3.03
2022-10-01T08:42:03.985Z,2.90
2022-10-01T08:44:45.723Z,2.47
2022-10-01T08:47:31.655Z,3.00
2022-10-01T08:50:21.736Z,3.27
2022-10-01T08:53:03.354Z,2.50
2022-10-01T08:55:37.501Z,4.10
2022-10-01T08:58:14.852Z,3.60
2022-10-01T09:00:47.598Z,4.13
2022-10-01T09:03:19.151Z,2.97
2022-10-01T09:06:21.922Z,2.83
2022-10-01T09:09:41.256Z,3.67
2022-10-01T09:12:14.863Z,3.00
2022-10-01T09:15:22.099Z,2.87
2022-10-01T09:18:03.146Z,3.00
2022-10-01T09:20:42.255Z,2.53
2022-10-01T09:23:30.818Z,4.40
2022-10-01T09:26:02.447Z,3.20
2022-10-01T09:28:35.321Z,3.80
2022-10-01T09:31:30.133Z,2.67
2022-10-01T09:34:34.256Z,2.50
2022-10-01T09:37:39.528Z,2.07
2022-10-01T09:40:27.792Z,2.90
2022-10-01T09:42:58.738Z,2.33
2022-10-01T09:45:29.813Z,2.67
2022-10-01T09:48:38.662Z,2.60
2022-10-01T09:51:27.804Z,3.30
2022-10-01T09:54:29.844Z,2.07
2022-10-01T09:57:15.023Z,2.40
2022-10-01T10:00:04.145Z,2.23
2022-10-01T10:02:50.799Z,3.00
2022-10-01T10:05:25.248Z,2.87
2022-10-01T10:08:03.665Z,2.40
2022-10-01T10:10:39.573Z,2.13
2022-10-01T10:13:13.888Z,2.13
2022-10-01T10:15:57.552Z,2.20
2022-10-01T10:18:35.357Z,2.10
2022-10-01T10:21:16.955Z,1.87
2022-10-01T10:23:52.048Z,1.90
2022-10-01T10:26:39.644Z,1.80
2022-10-01T10:29:31.078Z,2.80
2022-10-01T10:32:17.958Z,1.50
2022-10-01T10:34:49.128Z,1.70
2022-10-01T10:37:28.210Z,1.40
2022-10-01T10:39:59.258Z,1.60
2022-10-01T10:42:30.246Z,1.40
2022-10-01T10:45:03.698Z,1.30
2022-10-01T10:47:45.597Z,2.27
2022-10-01T10:50:39.882Z,1.60
2022-10-01T10:53:26.099Z,1.60
2022-10-01T10:56:05.266Z,1.37
2022-10-01T10:58:42.364Z,2.13
2022-10-01T11:01:20.283Z,1.87
2022-10-01T11:03:56.477Z,1.37
2022-10-01T11:06:27.927Z,1.50
2022-10-01T11:09:04.710Z,1.50
2022-10-01T11:11:56.379Z,1.37
2022-10-01T11:14:43.304Z,1.67
2022-10-01T11:17:59.304Z,0.93
2022-10-01T11:20:50.503Z,1.40
2022-10-01T11:23:55.159Z,1.20
2022-10-01T11:26:55.347Z,1.07
2022-10-01T11:29:57.020Z,1.13
2022-10-01T11:32:46.159Z,0.97
2022-10-01T11:35:52.847Z,1.33
2022-10-01T11:39:02.939Z,1.10
2022-10-01T11:41:44.070Z,1.20
2022-10-01T11:44:33.754Z,2.70
2022-10-01T11:47:13.387Z,1.00
2022-10-01T11:49:59.842Z,2.23
2022-10-01T11:52:52.665Z,0.70
2022-10-01T11:55:51.095Z,0.90
2022-10-01T11:58:51.140Z,1.10
2022-10-01T12:01:42.575Z,1.00
2022-10-01T12:04:39.770Z,1.83
2022-10-01T12:07:43.189Z,0.87
2022-10-01T12:10:46.374Z,1.13
2022-10-01T12:13:29.160Z,1.20
2022-10-01T12:16:49.887Z,1.67
2022-10-01T12:19:27.065Z,1.33
2022-10-01T12:22:07.196Z,1.20
2022-10-01T12:24:45.418Z,1.27
2022-10-01T12:27:31.309Z,1.13
2022-10-01T12:30:05.598Z,2.60
2022-10-01T12:33:25.678Z,0.90
2022-10-01T12:36:32.226Z,1.47
2022-10-01T12:39:30.927Z,1.00
2022-10-01T12:42:37.773Z,1.07
2022-10-01T12:45:59.070Z,0.90
2022-10-01T12:49:00.799Z,1.00
2022-10-01T12:51:46.641Z,1.30
2022-10-01T12:54:44.222Z,1.63
2022-10-01T12:57:50.081Z,2.70
2022-10-01T13:00:26.520Z,1.17
2022-10-01T13:03:17.963Z,1.70
2022-10-01T13:06:19.401Z,1.03
2022-10-01T13:09:08.277Z,1.77
2022-10-01T13:12:37.875Z,1.30
2022-10-01T13:15:21.444Z,1.70
2022-10-01T13:18:52.628Z,1.30
2022-10-01T13:21:54.914Z,0.83
2022-10-01T13:24:55.326Z,1.20
2022-10-01T13:27:54.946Z,1.30
2022-10-01T13:30:33.501Z,1.60
2022-10-01T13:33:20.643Z,6.50
2022-10-01T13:36:00.935Z,2.87
2022-10-01T13:38:38.034Z,1.43
2022-10-01T13:41:32.820Z,1.53
2022-10-01T13:44:33.911Z,1.37
2022-10-01T13:47:07.069Z,1.40
2022-10-01T13:49:38.297Z,1.20
2022-10-01T13:52:20.360Z,1.47
2022-10-01T13:54:54.801Z,1.63
2022-10-01T13:57:39.175Z,1.17
2022-10-01T14:00:12.841Z,1.67
2022-10-01T14:03:02.943Z,2.10
2022-10-01T14:05:43.227Z,2.07
2022-10-01T14:08:29.844Z,1.53
2022-10-01T14:11:30.330Z,1.37
2022-10-01T14:14:52.628Z,0.93
2022-10-01T14:17:28.640Z,1.40
2022-10-01T14:20:01.144Z,1.33
2022-10-01T14:23:22.378Z,1.00
2022-10-01T14:26:10.824Z,0.80
2022-10-01T14:29:00.316Z,1.13
2022-10-01T14:31:51.237Z,1.03
2022-10-01T14:34:46.911Z,0.80
2022-10-01T14:37:19.716Z,0.80
2022-10-01T14:40:24.361Z,5.33
2022-10-01T14:43:18.299Z,1.40
2022-10-01T14:45:57.616Z,1.20
2022-10-01T14:48:32.230Z,0.70
2022-10-01T14:51:06.866Z,0.80
2022-10-01T14:53:42.785Z,2.80
2022-10-01T14:56:15.315Z,1.37
2022-10-01T14:58:53.791Z,0.80
2022-10-01T15:01:25.869Z,0.70
2022-10-01T15:03:56.952Z,1.47
2022-10-01T15:06:29.975Z,1.10
2022-10-01T15:09:15.154Z,2.00
2022-10-01T15:11:50.572Z,0.80
2022-10-01T15:14:24.984Z,0.60
2022-10-01T15:16:55.948Z,1.43
2022-10-01T15:19:26.868Z,2.50
2022-10-01T15:22:00.967Z,1.70
2022-10-01T15:24:46.876Z,4.60
2022-10-01T15:27:20.698Z,0.90
2022-10-01T15:29:56.704Z,1.53
2022-10-01T15:32:28.485Z,0.73
2022-10-01T15:35:02.120Z,3.43
2022-10-01T15:37:37.499Z,1.10
2022-10-01T15:40:28.242Z,1.03
2022-10-01T15:43:08.902Z,0.80
2022-10-01T15:45:40.680Z,0.80
2022-10-01T15:48:30.019Z,1.00
2022-10-01T15:51:06.150Z,1.47
2022-10-01T15:53:37.034Z,0.70
2022-10-01T15:56:21.368Z,1.77
2022-10-01T15:58:58.934Z,0.80
2022-10-01T16:01:39.720Z,0.90
2022-10-01T16:04:13.232Z,2.70
2022-10-01T16:06:47.965Z,0.80
2022-10-01T16:09:25.158Z,1.10
2022-10-01T16:12:19.790Z,0.97
2022-10-01T16:14:59.940Z,1.20
2022-10-01T16:17:35.809Z,1.30
2022-10-01T16:20:15.842Z,3.20
2022-10-01T16:22:46.707Z,2.93
2022-10-01T16:25:23.669Z,1.17
2022-10-01T16:28:21.410Z,0.80
2022-10-01T16:30:52.378Z,1.57
2022-10-01T16:33:23.284Z,0.80
2022-10-01T16:36:09.253Z,0.80
2022-10-01T16:38:40.122Z,1.00
2022-10-01T16:41:12.160Z,0.97
2022-10-01T16:43:43.415Z,0.97
2022-10-01T16:46:14.334Z,0.70
2022-10-01T16:48:49.017Z,0.80
2022-10-01T16:51:21.872Z,1.13
2022-10-01T16:53:54.876Z,1.87
2022-10-01T16:56:27.322Z,0.70
2022-10-01T16:58:58.299Z,1.93
2022-10-01T17:01:29.682Z,0.80
2022-10-01T17:04:00.779Z,1.07
2022-10-01T17:06:31.822Z,2.90
2022-10-01T17:09:02.855Z,1.73
2022-10-01T17:11:34.527Z,1.10
2022-10-01T17:14:15.672Z,1.50
2022-10-01T17:16:48.508Z,1.40
2022-10-01T17:19:19.840Z,1.33
2022-10-01T17:21:50.896Z,1.10
2022-10-01T17:24:22.434Z,1.20
2022-10-01T17:26:54.504Z,1.63
2022-10-01T17:29:25.450Z,2.03
2022-10-01T17:31:56.329Z,2.20
2022-10-01T17:34:27.247Z,2.90
2022-10-01T17:36:59.885Z,2.17
2022-10-01T17:39:30.800Z,1.20
2022-10-01T17:42:01.655Z,1.80
2022-10-01T17:44:32.819Z,1.47
2022-10-01T17:47:04.797Z,1.10
2022-10-01T17:49:35.683Z,1.30
2022-10-01T17:52:07.409Z,2.70
2022-10-01T17:54:38.941Z,1.60
2022-10-01T17:57:11.325Z,1.37
2022-10-01T17:59:42.187Z,1.73
2022-10-01T18:02:36.606Z,2.40
2022-10-01T18:05:08.494Z,1.60
2022-10-01T18:07:40.497Z,9.00
2022-10-01T18:10:13.560Z,2.37
2022-10-01T18:12:44.587Z,3.90
2022-10-01T18:15:18.636Z,1.23
2022-10-01T18:18:42.731Z,2.30
2022-10-01T18:20:43.317Z,2.30
2022-10-01T18:23:14.177Z,1.83
2022-10-01T18:25:45.064Z,4.07
2022-10-01T18:28:16.063Z,3.53
2022-10-01T18:30:47.592Z,7.47
2022-10-01T18:33:18.446Z,2.83
2022-10-01T18:35:57.408Z,3.60
2022-10-01T18:38:30.650Z,1.83
2022-10-01T18:41:08.455Z,1.63
2022-10-01T18:43:41.798Z,1.63
2022-10-01T18:46:50.700Z,3.47
2022-10-01T18:50:05.282Z,2.20
2022-10-01T18:53:06.778Z,2.03
2022-10-01T18:55:40.632Z,2.37
2022-10-01T18:58:32.328Z,4.50
2022-10-01T19:01:21.409Z,1.97
2022-10-01T19:04:34.151Z,3.27
2022-10-01T19:07:50.373Z,2.60
2022-10-01T19:10:45.429Z,3.93
2022-10-01T19:13:22.828Z,1.93
2022-10-01T19:16:39.177Z,3.30
2022-10-01T19:20:25.585Z,2.20
2022-10-01T19:23:54.174Z,5.60
2022-10-01T19:26:57.939Z,1.80
2022-10-01T19:30:06.657Z,3.80
2022-10-01T19:32:56.679Z,6.07
2022-10-01T19:35:41.393Z,3.33
2022-10-01T19:38:25.516Z,4.10
2022-10-01T19:41:04.812Z,4.83
2022-10-01T19:43:43.887Z,7.13
2022-10-01T19:46:39.198Z,2.80
2022-10-01T19:49:21.714Z,4.30
2022-10-01T19:52:04.073Z,2.40
2022-10-01T19:54:42.205Z,5.27
2022-10-01T19:57:27.166Z,4.77
2022-10-01T20:00:09.826Z,7.83
2022-10-01T20:03:12.075Z,2.87
2022-10-01T20:05:58.869Z,7.90
2022-10-01T20:08:47.205Z,5.60
2022-10-01T20:11:36.416Z,2.07
2022-10-01T20:14:51.563Z,3.67
2022-10-01T20:17:40.834Z,3.10
2022-10-01T20:20:17.562Z,4.63
2022-10-01T20:23:24.859Z,6.10
2022-10-01T20:26:34.185Z,8.17
2022-10-01T20:29:45.589Z,3.73
2022-10-01T20:32:36.534Z,4.80
2022-10-01T20:35:26.309Z,5.20
2022-10-01T20:38:17.549Z,3.87
2022-10-01T20:40:58.190Z,4.33
2022-10-01T20:43:48.535Z,2.70
2022-10-01T20:46:49.933Z,4.10
2022-10-01T20:49:49.852Z,3.87
2022-10-01T20:53:04.756Z,8.90
2022-10-01T20:55:45.857Z,3.80
2022-10-01T20:58:32.475Z,7.03
2022-10-01T21:01:25.993Z,4.17
2022-10-01T21:04:19.614Z,6.80
2022-10-01T21:06:56.202Z,4.93
2022-10-01T21:09:41.346Z,7.60
2022-10-01T21:12:29.791Z,3.67
2022-10-01T21:15:02.645Z,3.47
2022-10-01T21:17:45.443Z,6.93
2022-10-01T21:20:41.718Z,3.60
2022-10-01T21:23:43.176Z,8.13
2022-10-01T21:26:44.743Z,5.17
2022-10-01T21:29:40.029Z,6.97
2022-10-01T21:32:36.873Z,4.13
2022-10-01T21:35:30.663Z,2.13
2022-10-01T21:38:28.954Z,3.80
2022-10-01T21:41:21.287Z,4.53
2022-10-01T21:44:35.303Z,5.53
2022-10-01T21:47:23.152Z,4.63
2022-10-01T21:50:14.002Z,2.47
2022-10-01T21:53:34.546Z,8.37
2022-10-01T21:56:34.440Z,3.97
2022-10-01T21:59:20.414Z,2.80
2022-10-01T22:02:19.363Z,2.87
2022-10-01T22:05:04.161Z,5.90
2022-10-01T22:07:51.740Z,4.90
2022-10-01T22:10:40.695Z,3.23
2022-10-01T22:13:22.205Z,6.83
2022-10-01T22:15:59.359Z,1.97
2022-10-01T22:18:51.088Z,5.43
2022-10-01T22:21:47.077Z,7.53
2022-10-01T22:24:32.593Z,3.70
2022-10-01T22:27:18.257Z,4.30
2022-10-01T22:30:12.263Z,7.17
2022-10-01T22:32:55.291Z,7.73
2022-10-01T22:35:42.449Z,6.40
2022-10-01T22:38:46.295Z,6.17
2022-10-01T22:41:52.144Z,8.53
2022-10-01T22:44:25.661Z,10.03
2022-10-01T22:47:40.283Z,10.73
2022-10-01T22:50:15.758Z,8.33
2022-10-01T22:53:03.701Z,5.27
2022-10-01T22:55:56.106Z,4.23
2022-10-01T22:58:48.945Z,5.30
2022-10-01T23:01:44.708Z,14.90
2022-10-01T23:04:21.344Z,10.57
2022-10-01T23:07:24.498Z,4.20
2022-10-01T23:10:15.506Z,4.87
2022-10-01T23:13:05.417Z,3.60
2022-10-01T23:16:03.998Z,6.17
2022-10-01T23:18:53.350Z,4.50
2022-10-01T23:21:32.941Z,4.87
2022-10-01T23:24:18.710Z,8.63
2022-10-01T23:27:14.262Z,10.73
2022-10-01T23:30:08.832Z,12.57
2022-10-01T23:33:18.917Z,21.23
2022-10-01T23:36:26.181Z,6.10
2022-10-01T23:39:18.048Z,9.90
2022-10-01T23:42:02.510Z,12.70
2022-10-01T23:44:41.851Z,6.20
2022-10-01T23:47:38.616Z,4.17
2022-10-01T23:51:01.667Z,5.07
2022-10-01T23:53:47.645Z,8.10
2022-10-01T23:56:43.561Z,6.87
2022-10-01T23:59:46.188Z,5.40
